createdAt,value
2017-10-18T00:01:05.236Z,14.50
2017-10-18T00:03:33.979Z,14.50
2017-10-18T00:06:03.030Z,14.50
2017-10-18T00:08:31.315Z,14.50
2017-10-18T00:11:01.498Z,14.40
2017-10-18T00:13:29.786Z,14.40
2017-10-18T00:15:59.586Z,14.40
2017-10-18T00:18:28.050Z,14.50
2017-10-18T00:20:56.331Z,14.50
2017-10-18T00:23:24.623Z,14.40
2017-10-18T00:25:52.965Z,14.40
2017-10-18T00:28:22.015Z,14.40
2017-10-18T00:30:50.306Z,14.40
2017-10-18T00:35:48.186Z,14.40
2017-10-18T00:38:17.247Z,14.40
2017-10-18T00:40:45.590Z,14.40
2017-10-18T00:43:13.875Z,14.40
2017-10-18T00:45:42.160Z,14.30
2017-10-18T00:50:41.291Z,14.20
2017-10-18T00:53:10.394Z,14.10
2017-10-18T00:55:39.501Z,14.10
2017-10-18T00:58:07.794Z,14.10
2017-10-18T01:00:36.099Z,14.00
2017-10-18T01:03:04.443Z,14.10
2017-10-18T01:05:33.885Z,14.00
2017-10-18T01:08:02.931Z,14.00
2017-10-18T01:10:31.298Z,14.00
2017-10-18T01:15:29.104Z,14.00
2017-10-18T01:17:57.447Z,14.10
2017-10-18T01:20:26.875Z,14.10
2017-10-18T01:22:55.177Z,14.10
2017-10-18T01:25:23.501Z,14.10
2017-10-18T01:27:52.939Z,14.10
2017-10-18T01:30:22.007Z,14.00
2017-10-18T01:32:50.403Z,14.00
2017-10-18T01:35:19.457Z,14.00
2017-10-18T01:37:47.750Z,14.00
2017-10-18T01:40:16.099Z,13.90
2017-10-18T01:42:44.387Z,13.90
2017-10-18T01:45:14.362Z,13.90
2017-10-18T01:47:43.486Z,13.80
2017-10-18T01:50:14.062Z,13.80
2017-10-18T01:52:43.162Z,13.80
2017-10-18T01:55:12.247Z,13.70
2017-10-18T01:57:40.534Z,13.70
2017-10-18T02:00:09.630Z,13.70
2017-10-18T02:02:39.111Z,13.70
2017-10-18T02:05:07.402Z,13.70
2017-10-18T02:07:36.482Z,13.70
2017-10-18T02:10:04.808Z,13.70
2017-10-18T02:12:34.616Z,13.70
2017-10-18T02:15:02.949Z,13.70
2017-10-18T02:17:31.231Z,13.70
2017-10-18T02:20:01.026Z,13.70
2017-10-18T02:22:30.142Z,13.80
2017-10-18T02:24:58.831Z,13.80
2017-10-18T02:27:27.883Z,13.70
2017-10-18T02:29:57.764Z,13.80
2017-10-18T02:32:26.050Z,13.80
2017-10-18T02:34:54.348Z,13.80
2017-10-18T02:37:22.947Z,13.80
2017-10-18T02:39:51.998Z,13.90
2017-10-18T02:42:20.687Z,13.90
2017-10-18T02:44:49.411Z,13.90
2017-10-18T02:47:18.454Z,13.90
2017-10-18T02:49:48.246Z,14.00
2017-10-18T02:52:17.347Z,14.00
2017-10-18T02:54:46.774Z,14.00
2017-10-18T02:57:16.583Z,14.00
2017-10-18T02:59:45.321Z,14.00
2017-10-18T03:02:13.607Z,14.00
2017-10-18T03:04:41.908Z,14.00
2017-10-18T03:07:11.374Z,13.90
2017-10-18T03:09:40.432Z,14.00
2017-10-18T03:12:09.493Z,14.10
2017-10-18T03:14:37.872Z,14.10
2017-10-18T03:17:06.159Z,14.10
2017-10-18T03:19:34.450Z,14.10
2017-10-18T03:22:02.792Z,14.00
2017-10-18T03:24:31.074Z,14.00
2017-10-18T03:29:28.929Z,13.90
2017-10-18T03:31:57.220Z,13.90
2017-10-18T03:34:25.502Z,13.90
2017-10-18T03:36:53.858Z,13.90
2017-10-18T03:41:52.785Z,13.90
2017-10-18T03:44:21.124Z,13.90
2017-10-18T03:46:49.411Z,14.00
2017-10-18T03:49:18.090Z,13.90
2017-10-18T03:51:46.827Z,13.90
2017-10-18T03:54:15.506Z,13.80
2017-10-18T03:56:43.800Z,13.80
2017-10-18T03:59:12.168Z,13.90
2017-10-18T04:01:40.446Z,13.80
2017-10-18T04:04:08.740Z,13.80
2017-10-18T04:06:37.087Z,13.70
2017-10-18T04:09:06.883Z,13.70
2017-10-18T04:11:35.168Z,13.70
2017-10-18T04:14:03.511Z,13.60
2017-10-18T04:16:32.575Z,13.50
2017-10-18T04:19:00.859Z,13.40
2017-10-18T04:21:29.958Z,13.40
2017-10-18T04:23:58.643Z,13.30
2017-10-18T04:26:26.936Z,13.30
2017-10-18T04:28:55.266Z,13.30
2017-10-18T04:31:23.562Z,13.30
2017-10-18T04:33:51.846Z,13.20
2017-10-18T04:36:20.198Z,13.20
2017-10-18T04:38:49.622Z,13.20
2017-10-18T04:41:18.675Z,13.20
2017-10-18T04:43:48.145Z,13.10
2017-10-18T04:46:16.432Z,13.20
2017-10-18T04:48:44.714Z,13.10
2017-10-18T04:51:13.753Z,13.20
2017-10-18T04:53:42.035Z,13.20
2017-10-18T04:56:11.079Z,13.20
2017-10-18T04:58:39.419Z,13.20
2017-10-18T05:01:08.471Z,13.20
2017-10-18T05:03:36.755Z,13.20
2017-10-18T05:06:05.087Z,13.20
2017-10-18T05:08:33.392Z,13.10
2017-10-18T05:11:01.676Z,13.10
2017-10-18T05:13:30.779Z,13.10
2017-10-18T05:15:59.069Z,13.10
2017-10-18T05:18:27.348Z,13.00
2017-10-18T05:20:55.688Z,13.10
2017-10-18T05:23:25.471Z,13.20
2017-10-18T05:25:53.763Z,13.10
2017-10-18T05:28:22.491Z,13.10
2017-10-18T05:30:50.777Z,13.10
2017-10-18T05:33:19.829Z,13.10
2017-10-18T05:35:48.986Z,13.10
2017-10-18T05:38:18.151Z,13.10
2017-10-18T05:40:46.440Z,13.10
2017-10-18T05:43:15.557Z,13.10
2017-10-18T05:45:44.229Z,13.10
2017-10-18T05:48:13.293Z,13.10
2017-10-18T05:50:42.786Z,13.10
2017-10-18T05:53:12.582Z,13.10
2017-10-18T05:55:40.869Z,13.00
2017-10-18T05:58:09.209Z,13.00
2017-10-18T06:00:37.492Z,13.00
2017-10-18T06:03:05.779Z,12.90
2017-10-18T06:05:34.136Z,12.90
2017-10-18T06:08:03.928Z,12.90
2017-10-18T06:10:32.210Z,12.90
2017-10-18T06:13:00.570Z,12.90
2017-10-18T06:15:29.614Z,12.90
2017-10-18T06:17:57.903Z,12.90
2017-10-18T06:20:27.046Z,12.80
2017-10-18T06:22:56.122Z,12.90
2017-10-18T06:27:54.373Z,12.90
2017-10-18T06:32:52.575Z,12.80
2017-10-18T06:35:20.931Z,12.80
2017-10-18T06:37:50.737Z,12.80
2017-10-18T06:40:19.031Z,12.80
2017-10-18T06:42:47.390Z,12.80
2017-10-18T06:45:15.682Z,12.80
2017-10-18T06:47:43.974Z,12.80
2017-10-18T06:50:13.818Z,12.90
2017-10-18T06:52:42.118Z,12.90
2017-10-18T06:55:11.543Z,13.00
2017-10-18T06:57:40.734Z,13.20
2017-10-18T07:00:11.104Z,13.40
2017-10-18T07:02:39.793Z,13.50
2017-10-18T07:05:08.143Z,13.60
2017-10-18T07:07:37.931Z,13.80
2017-10-18T07:10:06.222Z,14.00
2017-10-18T07:12:34.555Z,14.20
2017-10-18T07:15:03.227Z,14.30
2017-10-18T07:17:32.294Z,14.20
2017-10-18T07:20:00.672Z,14.20
2017-10-18T07:22:28.958Z,14.30
2017-10-18T07:24:57.249Z,14.30
2017-10-18T07:27:25.616Z,14.50
2017-10-18T07:29:55.413Z,14.60
2017-10-18T07:32:23.703Z,14.60
2017-10-18T07:34:52.080Z,14.70
2017-10-18T07:37:20.371Z,14.80
2017-10-18T07:39:48.674Z,14.90
2017-10-18T07:42:17.782Z,15.00
2017-10-18T07:44:46.848Z,15.20
2017-10-18T07:47:15.905Z,15.40
2017-10-18T07:49:44.855Z,15.60
2017-10-18T07:52:14.293Z,15.60
2017-10-18T07:54:42.589Z,15.70
2017-10-18T07:57:10.950Z,15.90
2017-10-18T07:59:39.236Z,16.10
2017-10-18T08:02:07.563Z,16.40
2017-10-18T08:04:37.569Z,16.60
2017-10-18T08:07:05.863Z,16.80
2017-10-18T08:09:35.302Z,17.00
2017-10-18T08:12:03.668Z,17.30
2017-10-18T08:17:01.892Z,17.50
2017-10-18T08:19:30.231Z,17.60
2017-10-18T08:21:58.519Z,17.70
2017-10-18T08:24:26.806Z,17.80
2017-10-18T08:26:55.534Z,18.00
2017-10-18T08:29:23.824Z,18.10
2017-10-18T08:31:53.246Z,18.10
2017-10-18T08:34:22.346Z,18.10
2017-10-18T08:36:50.638Z,18.20
2017-10-18T08:39:20.072Z,18.20
2017-10-18T08:41:48.402Z,18.30
2017-10-18T08:44:17.458Z,18.40
2017-10-18T08:46:46.516Z,18.40
2017-10-18T08:49:14.877Z,18.20
2017-10-18T08:51:43.177Z,18.30
2017-10-18T08:54:11.477Z,18.40
2017-10-18T08:56:39.832Z,18.60
2017-10-18T08:59:08.122Z,18.80
2017-10-18T09:01:37.182Z,19.20
2017-10-18T09:04:06.321Z,19.50
2017-10-18T09:06:35.362Z,19.70
2017-10-18T09:09:03.659Z,19.90
2017-10-18T09:11:33.495Z,20.00
2017-10-18T09:14:01.778Z,20.30
2017-10-18T09:16:30.067Z,20.20
2017-10-18T09:18:59.941Z,20.30
2017-10-18T09:21:28.226Z,20.40
2017-10-18T09:23:56.514Z,20.50
2017-10-18T09:26:24.858Z,20.70
2017-10-18T09:28:53.142Z,20.70
2017-10-18T09:31:21.433Z,20.80
2017-10-18T09:33:49.778Z,21.00
2017-10-18T09:36:19.207Z,21.20
2017-10-18T09:38:47.502Z,21.30
2017-10-18T09:41:15.879Z,21.40
2017-10-18T09:43:44.168Z,21.40
2017-10-18T09:46:12.462Z,21.30
2017-10-18T09:48:41.197Z,21.40
2017-10-18T09:51:09.483Z,21.50
2017-10-18T09:53:37.773Z,21.50
2017-10-18T09:58:35.644Z,21.60
2017-10-18T10:01:03.935Z,21.60
2017-10-18T10:03:32.274Z,21.50
2017-10-18T10:06:00.555Z,21.50
2017-10-18T10:08:28.850Z,21.50
2017-10-18T10:10:57.195Z,21.40
2017-10-18T10:13:25.481Z,21.20
2017-10-18T10:15:54.933Z,21.30
2017-10-18T10:18:23.298Z,21.40
2017-10-18T10:20:51.582Z,21.30
2017-10-18T10:23:19.883Z,21.20
2017-10-18T10:25:49.011Z,21.20
2017-10-18T10:28:17.289Z,21.10
2017-10-18T10:30:45.583Z,21.10
2017-10-18T10:33:14.678Z,21.20
2017-10-18T10:35:42.989Z,21.30
2017-10-18T10:38:11.661Z,21.40
2017-10-18T10:40:39.999Z,21.40
2017-10-18T10:43:08.283Z,21.40
2017-10-18T10:45:36.966Z,21.40
2017-10-18T10:48:06.071Z,21.20
2017-10-18T10:50:34.352Z,21.10
2017-10-18T10:53:02.638Z,21.10
2017-10-18T10:55:31.023Z,21.10
2017-10-18T10:57:59.306Z,21.20
2017-10-18T11:00:27.596Z,21.30
2017-10-18T11:02:57.441Z,21.30
2017-10-18T11:05:25.732Z,21.30
2017-10-18T11:07:54.011Z,21.30
2017-10-18T11:10:22.365Z,21.50
2017-10-18T11:12:51.054Z,21.60
2017-10-18T11:15:19.348Z,21.60
2017-10-18T11:17:47.682Z,21.80
2017-10-18T11:20:16.035Z,21.80
2017-10-18T11:22:44.326Z,21.90
2017-10-18T11:25:13.801Z,22.00
2017-10-18T11:27:42.090Z,22.10
2017-10-18T11:30:10.371Z,22.00
2017-10-18T11:32:39.131Z,22.10
2017-10-18T11:35:08.174Z,22.10
2017-10-18T11:37:36.467Z,22.20
2017-10-18T11:40:04.804Z,22.30
2017-10-18T11:45:03.375Z,22.70
2017-10-18T11:47:31.732Z,22.70
2017-10-18T11:52:29.921Z,22.80
2017-10-18T11:54:59.023Z,22.90
2017-10-18T11:59:57.219Z,22.90
2017-10-18T12:02:25.595Z,22.90
2017-10-18T12:04:53.882Z,23.00
2017-10-18T12:07:22.180Z,23.10
2017-10-18T12:09:50.513Z,23.20
2017-10-18T12:12:18.803Z,23.30
2017-10-18T12:14:47.871Z,23.40
2017-10-18T12:17:16.207Z,23.40
2017-10-18T12:19:44.495Z,23.50
2017-10-18T12:24:43.118Z,23.50
2017-10-18T12:27:11.412Z,23.50
2017-10-18T12:29:40.467Z,23.30
2017-10-18T12:34:38.319Z,23.30
2017-10-18T12:37:07.006Z,23.20
2017-10-18T12:39:35.349Z,23.40
2017-10-18T12:42:03.642Z,23.50
2017-10-18T12:44:31.926Z,23.50
2017-10-18T12:47:01.397Z,23.40
2017-10-18T12:49:29.682Z,23.40
2017-10-18T12:51:57.966Z,23.40
2017-10-18T12:54:27.813Z,23.40
2017-10-18T12:56:56.860Z,23.40
2017-10-18T12:59:26.379Z,23.40
2017-10-18T13:01:54.708Z,23.50
2017-10-18T13:04:22.990Z,23.40
2017-10-18T13:06:51.285Z,23.40
2017-10-18T13:09:20.371Z,23.30
2017-10-18T13:11:49.434Z,23.10
2017-10-18T13:14:17.720Z,23.10
2017-10-18T13:16:46.824Z,23.00
2017-10-18T13:19:15.878Z,23.10
2017-10-18T13:21:44.567Z,23.00
2017-10-18T13:24:12.982Z,23.00
2017-10-18T13:26:41.278Z,22.90
2017-10-18T13:29:09.575Z,23.00
2017-10-18T13:31:37.910Z,23.00
2017-10-18T13:34:06.207Z,23.00
2017-10-18T13:36:34.502Z,22.90
2017-10-18T13:39:03.974Z,22.80
2017-10-18T13:41:32.272Z,22.60
2017-10-18T13:44:00.566Z,22.60
2017-10-18T13:46:28.918Z,22.60
2017-10-18T13:48:57.210Z,22.70
2017-10-18T13:51:26.267Z,22.60
2017-10-18T13:53:54.609Z,22.60
2017-10-18T13:56:22.895Z,22.60
2017-10-18T13:58:52.331Z,22.70
2017-10-18T14:01:20.664Z,22.70
2017-10-18T14:06:18.895Z,22.60
2017-10-18T14:08:47.242Z,22.60
2017-10-18T14:11:15.526Z,22.60
2017-10-18T14:13:43.818Z,22.60
2017-10-18T14:16:13.327Z,22.60
2017-10-18T14:18:41.610Z,22.60
2017-10-18T14:21:09.899Z,22.60
2017-10-18T14:28:38.415Z,22.60
2017-10-18T14:31:06.761Z,22.60
2017-10-18T14:33:35.046Z,22.60
2017-10-18T14:36:04.106Z,22.60
2017-10-18T14:38:32.469Z,22.60
2017-10-18T14:41:01.519Z,22.50
2017-10-18T14:43:29.806Z,22.40
2017-10-18T14:45:58.538Z,22.50
2017-10-18T14:48:26.823Z,22.50
2017-10-18T14:50:55.117Z,22.50
2017-10-18T14:53:24.607Z,22.50
2017-10-18T14:55:52.899Z,22.50
2017-10-18T14:58:21.196Z,22.50
2017-10-18T15:00:49.536Z,22.40
2017-10-18T15:03:17.828Z,22.50
2017-10-18T15:05:46.114Z,22.40
2017-10-18T15:08:14.446Z,22.30
2017-10-18T15:10:43.875Z,22.20
2017-10-18T15:13:12.581Z,22.20
2017-10-18T15:15:40.902Z,22.30
2017-10-18T15:18:09.190Z,22.20
2017-10-18T15:20:38.243Z,22.20
2017-10-18T15:23:06.567Z,22.20
2017-10-18T15:28:04.574Z,22.10
2017-10-18T15:30:32.915Z,22.10
2017-10-18T15:33:01.200Z,22.00
2017-10-18T15:35:29.490Z,22.00
2017-10-18T15:37:57.849Z,22.00
2017-10-18T15:40:26.138Z,21.90
2017-10-18T15:42:54.421Z,21.80
2017-10-18T15:45:23.897Z,21.80
2017-10-18T15:50:22.100Z,21.80
2017-10-18T15:52:50.830Z,21.70
2017-10-18T15:55:19.887Z,21.70
2017-10-18T15:57:48.193Z,21.60
2017-10-18T16:00:16.535Z,21.60
2017-10-18T16:02:45.223Z,21.60
2017-10-18T16:05:14.287Z,21.60
2017-10-18T16:07:42.614Z,21.50
2017-10-18T16:10:12.411Z,21.40
2017-10-18T16:12:40.698Z,21.30
2017-10-18T16:15:09.049Z,21.20
2017-10-18T16:17:38.847Z,21.20
2017-10-18T16:20:07.134Z,21.10
2017-10-18T16:25:36.258Z,20.90
2017-10-18T16:28:05.690Z,20.90
2017-10-18T16:30:35.483Z,20.90
2017-10-18T16:33:04.215Z,20.90
2017-10-18T16:35:32.498Z,20.90
2017-10-18T16:38:00.781Z,20.90
2017-10-18T16:40:29.868Z,20.80
2017-10-18T16:42:59.304Z,20.80
2017-10-18T16:45:27.987Z,20.70
2017-10-18T16:47:56.335Z,20.70
2017-10-18T16:50:24.622Z,20.50
2017-10-18T16:52:54.410Z,20.50
2017-10-18T16:55:22.743Z,20.40
2017-10-18T16:57:51.022Z,20.20
2017-10-18T17:00:19.320Z,20.20
2017-10-18T17:02:47.664Z,20.10
2017-10-18T17:05:17.087Z,19.80
2017-10-18T17:07:46.131Z,19.80
2017-10-18T17:10:15.971Z,19.70
2017-10-18T17:12:44.262Z,19.60
2017-10-18T17:15:12.551Z,19.50
2017-10-18T17:17:41.650Z,19.40
2017-10-18T17:20:10.716Z,19.30
2017-10-18T17:22:39.007Z,19.10
2017-10-18T17:25:07.756Z,18.90
2017-10-18T17:27:36.038Z,18.80
2017-10-18T17:30:05.916Z,18.70
2017-10-18T17:32:34.230Z,18.60
2017-10-18T17:35:02.523Z,18.60
2017-10-18T17:37:30.806Z,18.40
2017-10-18T17:39:59.140Z,18.40
2017-10-18T17:42:27.427Z,18.30
2017-10-18T17:44:55.714Z,18.20
2017-10-18T17:47:24.082Z,18.20
2017-10-18T17:49:52.374Z,18.30
2017-10-18T17:52:21.051Z,18.30
2017-10-18T17:54:49.779Z,18.20
2017-10-18T17:57:18.061Z,18.10
2017-10-18T17:59:46.338Z,18.10
2017-10-18T18:02:14.687Z,18.00
2017-10-18T18:04:43.368Z,17.90
2017-10-18T18:07:11.647Z,18.10
2017-10-18T18:09:39.962Z,18.20
2017-10-18T18:12:08.248Z,18.30
2017-10-18T18:14:36.542Z,18.40
2017-10-18T18:17:04.872Z,18.50
2017-10-18T18:19:33.160Z,18.50
2017-10-18T18:22:01.435Z,18.60
2017-10-18T18:24:30.547Z,18.60
2017-10-18T18:26:59.599Z,18.70
2017-10-18T18:29:27.886Z,18.70
2017-10-18T18:31:57.749Z,18.80
2017-10-18T18:34:26.030Z,19.00
2017-10-18T18:36:54.311Z,18.90
2017-10-18T18:39:23.411Z,19.00
2017-10-18T18:41:52.102Z,19.00
2017-10-18T18:44:20.396Z,19.00
2017-10-18T18:46:49.504Z,19.10
2017-10-18T18:51:47.702Z,19.00
2017-10-18T18:54:16.026Z,19.00
2017-10-18T18:56:44.310Z,18.90
2017-10-18T18:59:12.599Z,18.80
2017-10-18T19:01:40.947Z,18.80
2017-10-18T19:04:10.376Z,18.70
2017-10-18T19:06:38.670Z,18.70
2017-10-18T19:09:06.999Z,18.80
2017-10-18T19:11:35.299Z,18.80
2017-10-18T19:14:05.089Z,18.80
2017-10-18T19:16:34.558Z,18.70
2017-10-18T19:19:03.622Z,18.70
2017-10-18T19:21:31.942Z,18.70
2017-10-18T19:24:00.262Z,18.60
2017-10-18T19:28:59.193Z,18.60
2017-10-18T19:31:27.556Z,18.50
2017-10-18T19:33:55.842Z,18.50
2017-10-18T19:36:25.642Z,18.50
2017-10-18T19:38:53.994Z,18.40
2017-10-18T19:41:23.034Z,18.50
2017-10-18T19:43:52.090Z,18.40
2017-10-18T19:46:20.430Z,18.30
2017-10-18T19:48:48.727Z,18.20
2017-10-18T19:53:46.995Z,18.10
2017-10-18T19:56:15.291Z,18.00
2017-10-18T20:01:13.552Z,17.60
2017-10-18T20:03:41.844Z,17.50
2017-10-18T20:06:10.123Z,17.40
2017-10-18T20:08:39.251Z,17.40
2017-10-18T20:13:37.461Z,17.50
2017-10-18T20:16:05.800Z,17.50
2017-10-18T20:18:35.599Z,17.50
2017-10-18T20:21:03.894Z,17.50
2017-10-18T20:23:32.206Z,17.50
2017-10-18T20:26:00.502Z,17.30
2017-10-18T20:28:28.794Z,17.30
2017-10-18T20:30:57.121Z,17.20
2017-10-18T20:33:25.407Z,17.20
2017-10-18T20:40:53.196Z,17.00
2017-10-18T20:43:21.476Z,17.00
2017-10-18T20:45:49.823Z,16.90
2017-10-18T20:48:18.877Z,16.90
2017-10-18T20:50:47.162Z,16.90
2017-10-18T20:53:15.490Z,16.90
2017-10-18T20:55:43.775Z,16.90
2017-10-18T20:58:12.053Z,16.90
2017-10-18T21:00:41.550Z,16.90
2017-10-18T21:03:09.835Z,16.90
2017-10-18T21:05:38.127Z,16.80
2017-10-18T21:08:06.462Z,16.80
2017-10-18T21:10:34.746Z,16.80
2017-10-18T21:15:32.591Z,16.70
2017-10-18T21:20:31.158Z,16.60
2017-10-18T21:25:29.516Z,16.40
2017-10-18T21:27:59.540Z,16.30
2017-10-18T21:30:27.873Z,16.30
2017-10-18T21:32:56.930Z,16.20
2017-10-18T21:35:25.218Z,16.20
2017-10-18T21:37:53.594Z,16.20
2017-10-18T21:40:23.399Z,16.20
2017-10-18T21:42:51.682Z,16.10
2017-10-18T21:45:20.039Z,16.20
2017-10-18T21:47:49.462Z,16.10
2017-10-18T21:50:18.528Z,16.20
2017-10-18T21:52:46.855Z,16.20
2017-10-18T21:55:16.278Z,16.10
2017-10-18T21:57:44.564Z,16.10
2017-10-18T22:00:12.956Z,16.00
2017-10-18T22:02:41.251Z,16.10
2017-10-18T22:05:10.295Z,16.00
2017-10-18T22:07:39.424Z,15.90
2017-10-18T22:10:07.707Z,15.90
2017-10-18T22:12:36.769Z,15.80
2017-10-18T22:15:05.119Z,15.80
2017-10-18T22:17:33.416Z,15.80
2017-10-18T22:20:01.731Z,15.80
2017-10-18T22:22:30.059Z,15.70
2017-10-18T22:24:59.115Z,15.70
2017-10-18T22:27:28.162Z,15.60
2017-10-18T22:29:56.502Z,15.60
2017-10-18T22:32:24.792Z,15.50
2017-10-18T22:34:53.084Z,15.60
2017-10-18T22:39:50.948Z,15.60
2017-10-18T22:42:19.240Z,15.60
2017-10-18T22:44:49.071Z,15.60
2017-10-18T22:47:17.363Z,15.50
2017-10-18T22:49:45.663Z,15.50
2017-10-18T22:52:15.511Z,15.60
2017-10-18T22:54:43.798Z,15.60
2017-10-18T22:57:12.846Z,15.70
2017-10-18T22:59:41.180Z,15.70
2017-10-18T23:02:10.975Z,15.60
2017-10-18T23:04:39.266Z,15.60
2017-10-18T23:07:07.595Z,15.70
2017-10-18T23:09:35.879Z,15.70
2017-10-18T23:12:04.166Z,15.70
2017-10-18T23:14:32.524Z,15.70
2017-10-18T23:17:01.578Z,15.70
2017-10-18T23:19:30.262Z,15.60
2017-10-18T23:29:28.354Z,15.60
2017-10-18T23:31:57.410Z,15.50
2017-10-18T23:34:26.467Z,15.60
2017-10-18T23:36:54.798Z,15.60
2017-10-18T23:39:23.095Z,15.70
2017-10-18T23:41:51.388Z,15.70
2017-10-18T23:44:20.841Z,15.70
2017-10-18T23:46:49.122Z,15.70
2017-10-18T23:49:17.405Z,15.70
2017-10-18T23:51:45.749Z,15.80
2017-10-18T23:54:14.047Z,15.90
2017-10-18T23:56:42.334Z,15.90
2017-10-18T23:59:10.677Z,16.00
